Time;durP1;ratioP1;P1;durP2;ratioP2;P2;SDS_P1;SDS_P2;PMS_P1;PMS_P2;Temp;Humidity;BMP_temperature;BMP_pressure;BME280_temperature;BME280_humidity;BME280_pressure;Samples;Min_cycle;Max_cycle;Signal;HPM_P1;HPM_P2
2023/05/22 00:00:22;;;;;;;12.65;10.55;;;;;;;;;;5088640;28;20068;-69
2023/05/22 00:02:51;;;;;;;12.23;10.77;;;;;;;;;;5088136;28;20761;-69
2023/05/22 00:05:19;;;;;;;13.85;10.82;;;;;;;;;;5088744;28;20142;-69
2023/05/22 00:07:46;;;;;;;13.00;10.43;;;;;;;;;;5088828;28;21270;-69
2023/05/22 00:10:12;;;;;;;13.43;10.40;;;;;;;;;;5088585;28;20047;-69
2023/05/22 00:12:39;;;;;;;14.25;10.77;;;;;;;;;;5088116;28;20051;-69
2023/05/22 00:15:07;;;;;;;15.55;11.10;;;;;;;;;;5087531;28;20054;-69
2023/05/22 00:17:34;;;;;;;12.25;10.23;;;;;;;;;;5087781;28;20077;-68
2023/05/22 00:20:07;;;;;;;13.45;10.93;;;;;;;;;;5091734;28;20450;-68
2023/05/22 00:22:35;;;;;;;13.13;10.43;;;;;;;;;;5091826;28;20412;-68
2023/05/22 00:25:02;;;;;;;12.80;10.68;;;;;;;;;;5091966;28;20055;-68
2023/05/22 00:27:29;;;;;;;13.27;11.55;;;;;;;;;;5071572;28;20060;-68
2023/05/22 00:29:56;;;;;;;14.80;10.88;;;;;;;;;;5086492;28;20044;-68
2023/05/22 00:32:22;;;;;;;14.73;11.00;;;;;;;;;;5091532;28;20060;-67
2023/05/22 00:34:49;;;;;;;12.98;10.70;;;;;;;;;;5091770;28;20052;-68
2023/05/22 00:37:19;;;;;;;13.00;10.68;;;;;;;;;;5091582;28;20138;-69
2023/05/22 00:39:46;;;;;;;12.75;11.38;;;;;;;;;;5090501;28;20139;-68
2023/05/22 00:42:13;;;;;;;14.00;10.77;;;;;;;;;;5091201;28;20489;-68
2023/05/22 00:44:40;;;;;;;12.63;10.68;;;;;;;;;;5091555;28;20098;-69
2023/05/22 00:47:07;;;;;;;13.27;11.35;;;;;;;;;;5091548;28;20071;-69
2023/05/22 00:49:34;;;;;;;13.77;11.57;;;;;;;;;;5091491;28;20044;-69
2023/05/22 00:52:01;;;;;;;14.77;10.75;;;;;;;;;;5091038;28;20063;-68
2023/05/22 00:54:31;;;;;;;12.85;11.40;;;;;;;;;;5091759;28;20056;-69
2023/05/22 00:56:59;;;;;;;13.50;11.27;;;;;;;;;;5091295;28;20101;-68
2023/05/22 00:59:26;;;;;;;12.27;10.98;;;;;;;;;;5091356;28;20062;-68
2023/05/22 01:01:53;;;;;;;12.80;10.60;;;;;;;;;;5091566;28;20101;-69
2023/05/22 01:04:20;;;;;;;13.15;10.48;;;;;;;;;;5091666;28;20088;-69
2023/05/22 01:06:47;;;;;;;13.90;10.95;;;;;;;;;;5091590;28;20093;-69
2023/05/22 01:09:14;;;;;;;14.10;11.00;;;;;;;;;;5091400;28;20048;-69
2023/05/22 01:11:55;;;;;;;13.82;10.50;;;;;;;;;;5090793;28;20131;-69
2023/05/22 01:14:29;;;;;;;13.77;11.00;;;;;;;;;;5091344;28;20048;-69
2023/05/22 01:17:07;;;;;;;14.20;11.20;;;;;;;;;;5091435;28;20051;-69
2023/05/22 01:20:05;;;;;;;14.27;11.38;;;;;;;;;;5091628;28;20063;-69
2023/05/22 01:23:04;;;;;;;12.32;11.00;;;;;;;;;;5083046;28;20048;-69
2023/05/22 01:26:10;;;;;;;15.02;11.90;;;;;;;;;;5086079;28;20109;-70
2023/05/22 01:28:55;;;;;;;13.88;11.30;;;;;;;;;;5091273;28;20052;-70
2023/05/22 01:31:25;;;;;;;12.68;10.80;;;;;;;;;;5091088;28;20052;-70
2023/05/22 01:33:55;;;;;;;14.50;11.88;;;;;;;;;;5090836;28;20097;-70
2023/05/22 01:36:24;;;;;;;12.35;10.73;;;;;;;;;;5091678;28;20130;-69
2023/05/22 01:38:52;;;;;;;14.35;10.93;;;;;;;;;;5091202;28;20114;-69
2023/05/22 01:41:20;;;;;;;14.85;11.18;;;;;;;;;;5091082;28;20082;-69
2023/05/22 01:43:47;;;;;;;13.43;11.23;;;;;;;;;;5090839;28;20055;-70
2023/05/22 01:46:14;;;;;;;13.48;11.00;;;;;;;;;;5090886;28;20543;-69
2023/05/22 01:48:42;;;;;;;13.05;10.70;;;;;;;;;;5091092;28;20052;-70
2023/05/22 01:51:17;;;;;;;13.88;11.50;;;;;;;;;;5091740;28;20052;-69
2023/05/22 01:53:51;;;;;;;15.82;11.63;;;;;;;;;;5094435;28;20052;-70
2023/05/22 01:56:29;;;;;;;14.85;12.18;;;;;;;;;;5094666;28;20056;-70
2023/05/22 01:59:01;;;;;;;13.48;11.07;;;;;;;;;;5094815;28;20051;-70
2023/05/22 02:01:32;;;;;;;13.93;11.27;;;;;;;;;;5094538;28;20433;-70
2023/05/22 02:04:02;;;;;;;13.35;11.57;;;;;;;;;;5093895;28;20056;-70
2023/05/22 02:06:31;;;;;;;13.40;10.80;;;;;;;;;;5094405;28;20131;-69
2023/05/22 02:08:59;;;;;;;12.98;10.95;;;;;;;;;;5094604;28;20731;-69
2023/05/22 02:11:27;;;;;;;12.98;11.23;;;;;;;;;;5094277;28;20561;-69
2023/05/22 02:13:55;;;;;;;14.10;11.32;;;;;;;;;;5094429;28;20131;-69
2023/05/22 02:16:23;;;;;;;13.60;10.82;;;;;;;;;;5094357;28;20102;-69
2023/05/22 02:18:50;;;;;;;12.10;10.48;;;;;;;;;;5094155;28;20048;-70
2023/05/22 02:21:18;;;;;;;13.50;11.82;;;;;;;;;;5094460;28;20202;-69
2023/05/22 02:23:45;;;;;;;14.32;12.13;;;;;;;;;;5093381;28;20040;-69
2023/05/22 02:26:11;;;;;;;15.02;12.20;;;;;;;;;;5093932;28;20048;-69
2023/05/22 02:28:41;;;;;;;13.48;12.07;;;;;;;;;;5093352;28;20055;-70
2023/05/22 02:31:08;;;;;;;16.48;11.80;;;;;;;;;;5093773;28;20128;-70
2023/05/22 02:33:35;;;;;;;14.70;11.70;;;;;;;;;;5093612;28;20055;-70
2023/05/22 02:36:02;;;;;;;14.63;11.35;;;;;;;;;;5094031;28;20493;-70
2023/05/22 02:38:30;;;;;;;14.82;12.18;;;;;;;;;;5093684;28;20082;-70
2023/05/22 02:40:57;;;;;;;14.32;11.55;;;;;;;;;;5093797;28;20048;-70
2023/05/22 02:43:24;;;;;;;14.32;10.98;;;;;;;;;;5093355;28;20048;-70
2023/05/22 02:45:50;;;;;;;14.13;11.48;;;;;;;;;;5093577;28;20052;-70
2023/05/22 02:48:17;;;;;;;14.27;11.82;;;;;;;;;;5093748;28;20097;-70
2023/05/22 02:50:46;;;;;;;13.55;11.15;;;;;;;;;;5093608;28;20056;-70
2023/05/22 02:53:14;;;;;;;15.32;12.10;;;;;;;;;;5093573;28;20146;-70
2023/05/22 02:55:42;;;;;;;14.20;11.50;;;;;;;;;;5092884;28;20094;-70
2023/05/22 02:58:10;;;;;;;14.73;11.38;;;;;;;;;;5093599;28;20057;-70
2023/05/22 03:00:37;;;;;;;16.20;12.10;;;;;;;;;;5093745;28;20138;-69
2023/05/22 03:03:04;;;;;;;14.27;11.80;;;;;;;;;;5092292;28;20139;-70
2023/05/22 03:05:31;;;;;;;16.50;11.63;;;;;;;;;;5093641;28;20101;-69
2023/05/22 03:07:58;;;;;;;15.38;11.95;;;;;;;;;;5093382;28;20044;-70
2023/05/22 03:10:25;;;;;;;15.15;11.50;;;;;;;;;;5093047;28;20097;-70
2023/05/22 03:12:53;;;;;;;16.00;12.10;;;;;;;;;;5092901;28;20051;-70
2023/05/22 03:15:20;;;;;;;17.20;12.57;;;;;;;;;;5093296;28;20105;-70
2023/05/22 03:17:47;;;;;;;14.55;11.50;;;;;;;;;;5093198;28;20044;-70
2023/05/22 03:20:15;;;;;;;16.52;12.57;;;;;;;;;;5093133;28;20120;-70
2023/05/22 03:22:42;;;;;;;17.30;12.82;;;;;;;;;;5092999;28;20052;-70
2023/05/22 03:25:09;;;;;;;17.15;12.77;;;;;;;;;;5092548;28;20048;-70
2023/05/22 03:27:39;;;;;;;14.68;12.30;;;;;;;;;;5072905;28;20056;-70
2023/05/22 03:30:08;;;;;;;15.50;11.70;;;;;;;;;;5073113;28;20063;-70
2023/05/22 03:32:36;;;;;;;16.27;12.97;;;;;;;;;;5072630;28;20135;-70
2023/05/22 03:35:04;;;;;;;14.40;11.75;;;;;;;;;;5072996;28;20602;-72
2023/05/22 03:37:34;;;;;;;16.92;13.38;;;;;;;;;;5093035;28;20059;-68
2023/05/22 03:40:01;;;;;;;16.40;13.23;;;;;;;;;;5092576;28;20113;-69
2023/05/22 03:42:28;;;;;;;17.85;14.05;;;;;;;;;;5092084;28;20549;-69
2023/05/22 03:44:54;;;;;;;16.85;12.68;;;;;;;;;;5092669;28;20093;-70
2023/05/22 03:47:22;;;;;;;15.27;12.13;;;;;;;;;;5092583;28;20048;-70
2023/05/22 03:49:49;;;;;;;14.88;12.20;;;;;;;;;;5092370;28;20496;-70
2023/05/22 03:52:16;;;;;;;15.32;12.05;;;;;;;;;;5091858;28;20051;-71
2023/05/22 03:54:43;;;;;;;14.63;12.05;;;;;;;;;;5092612;28;20100;-70
2023/05/22 03:57:09;;;;;;;13.85;11.38;;;;;;;;;;5092437;28;20093;-70
2023/05/22 03:59:36;;;;;;;14.52;12.18;;;;;;;;;;5092408;28;20052;-72
2023/05/22 04:02:04;;;;;;;14.80;11.68;;;;;;;;;;5092107;28;20044;-70
2023/05/22 04:04:37;;;;;;;15.15;11.70;;;;;;;;;;5092226;28;20043;-70
2023/05/22 04:07:06;;;;;;;14.25;11.57;;;;;;;;;;5092411;28;20048;-70
2023/05/22 04:09:35;;;;;;;14.00;11.45;;;;;;;;;;5092469;28;20060;-70
2023/05/22 04:12:02;;;;;;;14.15;11.32;;;;;;;;;;5091716;28;20413;-70
2023/05/22 04:14:29;;;;;;;13.93;11.25;;;;;;;;;;5092242;28;20099;-70
2023/05/22 04:16:56;;;;;;;14.32;11.57;;;;;;;;;;5092322;28;20421;-71
2023/05/22 04:19:22;;;;;;;15.68;11.35;;;;;;;;;;5091983;28;20074;-70
2023/05/22 04:21:51;;;;;;;12.95;11.00;;;;;;;;;;5091639;28;20043;-70
2023/05/22 04:24:18;;;;;;;14.50;11.23;;;;;;;;;;5091687;28;20114;-70
2023/05/22 04:26:44;;;;;;;14.43;11.50;;;;;;;;;;5092008;28;20415;-70
2023/05/22 04:29:13;;;;;;;14.57;11.60;;;;;;;;;;5091901;28;20048;-70
2023/05/22 04:31:39;;;;;;;15.82;12.23;;;;;;;;;;5091281;28;20056;-69
2023/05/22 04:34:06;;;;;;;15.90;11.98;;;;;;;;;;5091625;28;20112;-69
2023/05/22 04:36:34;;;;;;;15.77;12.20;;;;;;;;;;5091500;28;20097;-70
2023/05/22 04:39:02;;;;;;;15.88;12.02;;;;;;;;;;5091315;28;20067;-69
2023/05/22 04:41:29;;;;;;;17.75;13.57;;;;;;;;;;5091247;28;20509;-69
2023/05/22 04:43:57;;;;;;;17.83;13.70;;;;;;;;;;5091235;28;20401;-69
2023/05/22 04:46:24;;;;;;;18.88;13.82;;;;;;;;;;5091714;28;20087;-69
2023/05/22 04:48:51;;;;;;;18.40;14.00;;;;;;;;;;5091445;28;20048;-70
2023/05/22 04:51:18;;;;;;;15.95;12.85;;;;;;;;;;5109324;22;20097;-77
2023/05/22 04:53:45;;;;;;;17.05;12.15;;;;;;;;;;5070428;28;20048;-77
2023/05/22 04:56:13;;;;;;;15.68;12.30;;;;;;;;;;5072517;28;20131;-77
2023/05/22 04:58:39;;;;;;;16.95;13.25;;;;;;;;;;5074435;28;20045;-77
2023/05/22 05:01:06;;;;;;;19.73;14.80;;;;;;;;;;5073374;28;20076;-77
2023/05/22 05:03:34;;;;;;;18.17;14.55;;;;;;;;;;5065608;28;20053;-78
2023/05/22 05:06:00;;;;;;;21.90;15.10;;;;;;;;;;5052896;28;20045;-77
2023/05/22 05:08:27;;;;;;;19.63;14.95;;;;;;;;;;5052909;28;20049;-77
2023/05/22 05:10:53;;;;;;;18.35;14.35;;;;;;;;;;5052680;28;20132;-78
2023/05/22 05:13:21;;;;;;;19.15;13.35;;;;;;;;;;5052974;28;20053;-78
2023/05/22 05:15:48;;;;;;;18.15;14.45;;;;;;;;;;5071264;28;20057;-77
2023/05/22 05:18:15;;;;;;;17.52;13.23;;;;;;;;;;5071866;28;20044;-76
2023/05/22 05:20:42;;;;;;;15.32;11.95;;;;;;;;;;5053580;28;20053;-78
2023/05/22 05:23:09;;;;;;;17.63;11.73;;;;;;;;;;5064346;28;20127;-78
2023/05/22 05:25:37;;;;;;;16.52;11.43;;;;;;;;;;5067498;28;20078;-77
2023/05/22 05:28:09;;;;;;;15.30;11.52;;;;;;;;;;5081731;28;20052;-77
2023/05/22 05:30:37;;;;;;;20.35;12.45;;;;;;;;;;5086438;28;20056;-77
2023/05/22 05:33:04;;;;;;;14.15;10.57;;;;;;;;;;5087115;28;20559;-76
2023/05/22 05:35:31;;;;;;;16.75;12.13;;;;;;;;;;5078530;28;20056;-77
2023/05/22 05:37:57;;;;;;;15.32;11.50;;;;;;;;;;5064806;28;20055;-77
2023/05/22 05:40:24;;;;;;;16.95;11.18;;;;;;;;;;5070402;28;20044;-78
2023/05/22 05:42:51;;;;;;;15.27;12.50;;;;;;;;;;5071614;28;20045;-77
2023/05/22 05:45:18;;;;;;;15.75;12.10;;;;;;;;;;5076472;28;20060;-76
2023/05/22 05:47:46;;;;;;;14.00;11.95;;;;;;;;;;5097238;28;20040;-77
2023/05/22 05:50:14;;;;;;;14.52;11.63;;;;;;;;;;5094861;28;20075;-77
2023/05/22 05:52:40;;;;;;;14.00;11.18;;;;;;;;;;5080891;28;20080;-77
2023/05/22 05:55:08;;;;;;;15.95;10.63;;;;;;;;;;5078108;28;20762;-78
2023/05/22 05:57:36;;;;;;;14.32;11.20;;;;;;;;;;5061104;28;20059;-79
2023/05/22 06:00:03;;;;;;;14.40;10.73;;;;;;;;;;5057423;28;20044;-78
2023/05/22 06:02:30;;;;;;;13.43;10.88;;;;;;;;;;5060980;28;20041;-78
2023/05/22 06:04:58;;;;;;;15.15;10.85;;;;;;;;;;5058168;28;20041;-78
2023/05/22 06:07:24;;;;;;;14.05;11.07;;;;;;;;;;5064711;28;20140;-78
2023/05/22 06:09:51;;;;;;;13.10;10.07;;;;;;;;;;5078343;28;20483;-78
2023/05/22 06:12:18;;;;;;;13.73;10.55;;;;;;;;;;5079257;28;20193;-78
2023/05/22 06:14:44;;;;;;;14.52;10.98;;;;;;;;;;5078177;28;20135;-78
2023/05/22 06:17:11;;;;;;;13.18;10.75;;;;;;;;;;5076790;28;20143;-77
2023/05/22 06:19:38;;;;;;;14.45;10.77;;;;;;;;;;5059615;28;20128;-78
2023/05/22 06:22:06;;;;;;;14.10;10.80;;;;;;;;;;5057798;28;20152;-79
2023/05/22 06:24:32;;;;;;;14.98;11.48;;;;;;;;;;5057847;28;20045;-77
2023/05/22 06:27:00;;;;;;;13.98;11.50;;;;;;;;;;5058005;28;20072;-76
2023/05/22 06:29:26;;;;;;;14.30;11.27;;;;;;;;;;5068168;28;20044;-79
2023/05/22 06:31:53;;;;;;;14.38;10.68;;;;;;;;;;5061556;28;20675;-78
2023/05/22 06:34:21;;;;;;;15.13;10.30;;;;;;;;;;5080153;28;20052;-78
2023/05/22 06:36:49;;;;;;;13.82;10.15;;;;;;;;;;5078644;28;20048;-79
2023/05/22 06:39:17;;;;;;;17.00;11.55;;;;;;;;;;5077433;28;20128;-79
2023/05/22 06:41:44;;;;;;;13.95;9.90;;;;;;;;;;5079203;28;20629;-79
2023/05/22 06:44:11;;;;;;;14.30;9.95;;;;;;;;;;5078380;28;20131;-79
2023/05/22 06:46:37;;;;;;;15.20;10.23;;;;;;;;;;5078236;28;20068;-79
2023/05/22 06:49:05;;;;;;;14.32;10.23;;;;;;;;;;5077743;28;20136;-80
2023/05/22 06:51:31;;;;;;;15.40;10.57;;;;;;;;;;5078090;28;20044;-80
2023/05/22 06:53:58;;;;;;;13.35;9.60;;;;;;;;;;5078690;28;20131;-79
2023/05/22 06:56:26;;;;;;;13.52;9.32;;;;;;;;;;5078456;28;20132;-79
2023/05/22 06:58:53;;;;;;;13.23;9.35;;;;;;;;;;5078362;28;20080;-79
2023/05/22 07:01:20;;;;;;;10.45;8.60;;;;;;;;;;5079358;28;20510;-79
2023/05/22 07:03:46;;;;;;;12.80;9.85;;;;;;;;;;5078968;28;20055;-79
2023/05/22 07:06:14;;;;;;;12.02;9.77;;;;;;;;;;5079043;28;20464;-79
2023/05/22 07:08:40;;;;;;;11.18;8.52;;;;;;;;;;5078650;28;20044;-78
2023/05/22 07:11:07;;;;;;;13.07;10.05;;;;;;;;;;5077741;28;20476;-78
2023/05/22 07:13:35;;;;;;;13.48;9.75;;;;;;;;;;5061639;28;20094;-79
2023/05/22 07:16:02;;;;;;;11.52;9.32;;;;;;;;;;5066975;28;20050;-81
2023/05/22 07:18:28;;;;;;;12.27;10.15;;;;;;;;;;5069214;28;20121;-79
2023/05/22 07:20:55;;;;;;;15.38;10.07;;;;;;;;;;5054803;28;20049;-79
2023/05/22 07:23:22;;;;;;;11.23;9.43;;;;;;;;;;5061033;28;20044;-78
2023/05/22 07:25:48;;;;;;;12.63;9.60;;;;;;;;;;5077243;28;20036;-79
2023/05/22 07:28:15;;;;;;;12.95;9.15;;;;;;;;;;5080565;28;20112;-81
2023/05/22 07:30:43;;;;;;;13.30;10.50;;;;;;;;;;5081335;28;20139;-81
2023/05/22 07:33:10;;;;;;;12.00;8.90;;;;;;;;;;5080146;28;20076;-75
2023/05/22 07:35:37;;;;;;;13.73;10.88;;;;;;;;;;5084048;28;20044;-78
2023/05/22 07:38:04;;;;;;;14.25;10.40;;;;;;;;;;5074886;28;20127;-78
2023/05/22 07:40:30;;;;;;;12.82;10.48;;;;;;;;;;5074694;28;20507;-76
2023/05/22 07:42:57;;;;;;;12.93;9.77;;;;;;;;;;5073455;28;20104;-80
2023/05/22 07:45:25;;;;;;;12.85;10.02;;;;;;;;;;5078271;28;20076;-80
2023/05/22 07:47:53;;;;;;;14.35;9.63;;;;;;;;;;5077817;28;20040;-78
2023/05/22 07:50:19;;;;;;;12.30;10.18;;;;;;;;;;5061529;28;20056;-78
2023/05/22 07:52:46;;;;;;;14.02;10.63;;;;;;;;;;5065482;28;20088;-76
2023/05/22 07:55:13;;;;;;;13.77;10.40;;;;;;;;;;5066484;28;20080;-75
2023/05/22 07:57:40;;;;;;;13.55;9.68;;;;;;;;;;5051283;28;20045;-77
2023/05/22 08:00:12;;;;;;;13.25;9.80;;;;;;;;;;5051177;28;20079;-76
2023/05/22 08:02:38;;;;;;;14.35;9.95;;;;;;;;;;5050637;28;20508;-77
2023/05/22 08:05:08;;;;;;;15.60;10.52;;;;;;;;;;5051571;28;20077;-76
2023/05/22 08:07:35;;;;;;;12.73;10.38;;;;;;;;;;5059396;28;20055;-75
2023/05/22 08:10:04;;;;;;;18.95;13.68;;;;;;;;;;5072206;28;20123;-76
2023/05/22 08:12:31;;;;;;;15.10;11.23;;;;;;;;;;5065419;28;20131;-76
2023/05/22 08:14:57;;;;;;;15.05;10.80;;;;;;;;;;5057643;28;20130;-76
2023/05/22 08:17:24;;;;;;;14.13;10.23;;;;;;;;;;5062923;28;20063;-75
2023/05/22 08:19:50;;;;;;;14.95;11.27;;;;;;;;;;5071916;28;20044;-76
2023/05/22 08:22:18;;;;;;;14.38;10.15;;;;;;;;;;5072418;28;20139;-78
2023/05/22 08:24:45;;;;;;;15.70;12.20;;;;;;;;;;5071415;28;20495;-77
2023/05/22 08:27:12;;;;;;;13.10;10.15;;;;;;;;;;5070315;28;20040;-76
2023/05/22 08:29:39;;;;;;;15.57;11.68;;;;;;;;;;5070101;28;20140;-75
2023/05/22 08:32:06;;;;;;;13.77;10.38;;;;;;;;;;5069823;28;20071;-77
2023/05/22 08:34:34;;;;;;;13.63;9.82;;;;;;;;;;5070340;28;20486;-75
2023/05/22 08:37:00;;;;;;;14.25;11.30;;;;;;;;;;5070190;28;20570;-75
2023/05/22 08:39:30;;;;;;;14.80;11.38;;;;;;;;;;5069575;28;20052;-75
2023/05/22 08:41:56;;;;;;;15.23;11.40;;;;;;;;;;5057125;28;20053;-76
2023/05/22 08:44:24;;;;;;;15.32;11.75;;;;;;;;;;5038586;28;20045;-75
2023/05/22 08:46:52;;;;;;;14.93;11.50;;;;;;;;;;5044472;28;20048;-75
2023/05/22 08:49:21;;;;;;;15.20;11.73;;;;;;;;;;5041389;28;20052;-75
2023/05/22 08:51:52;;;;;;;13.77;10.32;;;;;;;;;;5049656;28;20160;-75
2023/05/22 08:54:22;;;;;;;13.82;10.98;;;;;;;;;;5049174;28;20719;-74
2023/05/22 08:56:51;;;;;;;13.70;10.80;;;;;;;;;;5049676;28;20052;-74
2023/05/22 08:59:20;;;;;;;14.00;11.15;;;;;;;;;;5061959;28;20052;-75
2023/05/22 09:01:48;;;;;;;13.77;10.73;;;;;;;;;;5064870;28;20124;-75
2023/05/22 09:04:15;;;;;;;13.85;10.85;;;;;;;;;;5054467;28;20052;-75
2023/05/22 09:06:42;;;;;;;14.90;11.35;;;;;;;;;;5055331;28;20136;-73
2023/05/22 09:09:09;;;;;;;16.50;11.88;;;;;;;;;;5061455;28;20044;-76
2023/05/22 09:11:36;;;;;;;13.68;11.48;;;;;;;;;;5075603;28;20045;-74
2023/05/22 09:14:10;;;;;;;13.38;11.70;;;;;;;;;;5074099;28;20124;-74
2023/05/22 09:16:45;;;;;;;19.58;11.43;;;;;;;;;;5073643;28;20059;-74
2023/05/22 09:19:12;;;;;;;14.10;11.13;;;;;;;;;;5054180;28;20049;-76
2023/05/22 09:21:38;;;;;;;19.20;12.55;;;;;;;;;;5055310;28;20045;-74
2023/05/22 09:24:08;;;;;;;13.40;10.98;;;;;;;;;;5053559;28;20235;-73
2023/05/22 09:26:35;;;;;;;13.45;10.85;;;;;;;;;;5054003;28;20041;-76
2023/05/22 09:29:02;;;;;;;15.70;11.70;;;;;;;;;;5054331;28;20104;-75
2023/05/22 09:31:30;;;;;;;14.82;10.52;;;;;;;;;;5054893;28;20077;-76
2023/05/22 09:33:57;;;;;;;16.55;12.35;;;;;;;;;;5053532;28;20765;-76
2023/05/22 09:36:31;;;;;;;14.00;11.52;;;;;;;;;;5055251;28;20132;-76
2023/05/22 09:39:00;;;;;;;14.45;10.98;;;;;;;;;;5053832;28;20071;-76
2023/05/22 09:41:29;;;;;;;14.18;11.13;;;;;;;;;;5053926;28;20049;-76
2023/05/22 09:43:55;;;;;;;17.90;12.18;;;;;;;;;;5053619;28;20048;-76
2023/05/22 09:46:22;;;;;;;14.95;12.38;;;;;;;;;;5055379;28;20132;-76
2023/05/22 09:48:52;;;;;;;14.27;11.55;;;;;;;;;;5055617;28;20590;-76
2023/05/22 09:51:22;;;;;;;15.10;12.77;;;;;;;;;;5055107;28;20045;-75
2023/05/22 09:53:50;;;;;;;15.13;12.30;;;;;;;;;;5055541;28;20094;-76
2023/05/22 09:56:18;;;;;;;15.95;12.10;;;;;;;;;;5054511;28;20124;-75
2023/05/22 09:58:46;;;;;;;14.90;12.38;;;;;;;;;;5064775;28;20043;-75
2023/05/22 10:01:15;;;;;;;13.77;11.48;;;;;;;;;;5053296;28;20411;-76
2023/05/22 10:03:43;;;;;;;15.45;11.77;;;;;;;;;;5053017;28;20053;-76
2023/05/22 10:06:12;;;;;;;15.15;12.18;;;;;;;;;;5053028;28;20048;-75
2023/05/22 10:08:50;;;;;;;14.77;12.02;;;;;;;;;;5052867;28;20136;-76
2023/05/22 10:11:17;;;;;;;17.08;12.63;;;;;;;;;;5052697;28;20048;-76
2023/05/22 10:13:46;;;;;;;16.65;12.93;;;;;;;;;;5052546;28;20051;-76
2023/05/22 10:16:15;;;;;;;16.25;11.85;;;;;;;;;;5052659;28;20055;-76
2023/05/22 10:18:44;;;;;;;15.45;12.10;;;;;;;;;;5052720;28;20051;-76
2023/05/22 10:21:13;;;;;;;14.07;11.73;;;;;;;;;;5052838;28;20049;-75
2023/05/22 10:23:40;;;;;;;13.73;11.13;;;;;;;;;;5052000;28;20053;-76
2023/05/22 10:26:08;;;;;;;18.27;15.35;;;;;;;;;;5060617;28;20041;-76
2023/05/22 10:28:42;;;;;;;16.25;13.40;;;;;;;;;;5066086;28;20102;-76
2023/05/22 10:31:18;;;;;;;18.27;13.55;;;;;;;;;;5053598;28;20610;-75
2023/05/22 10:33:48;;;;;;;17.35;13.20;;;;;;;;;;5052758;28;20045;-76
2023/05/22 10:36:21;;;;;;;;;;;;;;;;;;5053288;28;20048;-76
2023/05/22 10:39:03;;;;;;;17.88;13.45;;;;;;;;;;5052879;28;19921;-76
2023/05/22 10:41:31;;;;;;;17.55;13.40;;;;;;;;;;5052395;28;20045;-76
2023/05/22 10:43:57;;;;;;;18.45;13.95;;;;;;;;;;5053510;28;20132;-77
2023/05/22 10:46:24;;;;;;;18.38;14.65;;;;;;;;;;5053119;28;20507;-76
2023/05/22 10:48:55;;;;;;;16.15;12.88;;;;;;;;;;5054990;28;20488;-77
2023/05/22 10:51:23;;;;;;;21.95;14.27;;;;;;;;;;5054696;28;20140;-76
2023/05/22 10:53:52;;;;;;;19.85;15.30;;;;;;;;;;5067744;28;20051;-76
2023/05/22 10:56:20;;;;;;;17.88;14.00;;;;;;;;;;5052439;28;20518;-76
2023/05/22 10:58:57;;;;;;;16.77;13.23;;;;;;;;;;5051717;28;20132;-76
2023/05/22 11:01:26;;;;;;;18.23;13.30;;;;;;;;;;5051446;28;20459;-76
2023/05/22 11:03:54;;;;;;;13.95;11.27;;;;;;;;;;5064380;22;20037;-77
2023/05/22 11:06:34;;;;;;;15.52;12.38;;;;;;;;;;5071035;28;20570;-76
2023/05/22 11:09:16;;;;;;;16.55;13.20;;;;;;;;;;5071809;28;20140;-76
2023/05/22 11:11:43;;;;;;;14.25;11.82;;;;;;;;;;5071531;28;20135;-77
2023/05/22 11:14:11;;;;;;;16.33;12.98;;;;;;;;;;5063559;28;20079;-78
2023/05/22 11:20:03;;;;;;;14.18;12.07;;;;;;;;;;5031862;28;20100;-81
2023/05/22 11:22:33;;;;;;;16.88;13.27;;;;;;;;;;5036215;28;20151;-78
2023/05/22 11:25:04;;;;;;;13.57;11.50;;;;;;;;;;5035572;28;20156;-77
2023/05/22 11:27:31;;;;;;;14.75;11.80;;;;;;;;;;5026142;28;20085;-84
2023/05/22 11:29:59;;;;;;;13.70;11.93;;;;;;;;;;5025885;28;20050;-80
2023/05/22 11:35:50;;;;;;;13.13;11.38;;;;;;;;;;5025875;28;20063;-80
2023/05/22 11:38:19;;;;;;;15.67;12.67;;;;;;;;;;5015925;28;20087;-81
2023/05/22 11:40:51;;;;;;;16.80;12.55;;;;;;;;;;5026668;28;20045;-80
2023/05/22 11:43:28;;;;;;;13.60;11.77;;;;;;;;;;5026472;28;20135;-82
2023/05/22 11:45:55;;;;;;;14.63;12.77;;;;;;;;;;5032055;28;20050;-77
2023/05/22 11:48:23;;;;;;;17.10;13.48;;;;;;;;;;5017617;28;20105;-77
2023/05/22 11:50:50;;;;;;;13.73;11.88;;;;;;;;;;5021375;28;20056;-78
2023/05/22 11:53:18;;;;;;;14.52;12.32;;;;;;;;;;5028028;28;20124;-81
2023/05/22 11:55:47;;;;;;;12.32;11.02;;;;;;;;;;5031420;28;20050;-78
2023/05/22 11:58:14;;;;;;;18.38;12.80;;;;;;;;;;5036216;28;20049;-84
2023/05/22 12:00:43;;;;;;;14.77;11.68;;;;;;;;;;5030108;28;20080;-78
2023/05/22 12:03:10;;;;;;;11.80;10.32;;;;;;;;;;5023333;28;20045;-77
2023/05/22 12:05:37;;;;;;;12.85;10.48;;;;;;;;;;5032023;28;20037;-76
2023/05/22 12:08:03;;;;;;;14.98;11.32;;;;;;;;;;5014499;28;20060;-78
2023/05/22 12:10:31;;;;;;;13.10;10.75;;;;;;;;;;5011878;28;20108;-77
2023/05/22 12:12:58;;;;;;;12.98;11.57;;;;;;;;;;5011213;28;20052;-76
2023/05/22 12:15:25;;;;;;;12.45;11.00;;;;;;;;;;5011346;28;20501;-77
2023/05/22 12:17:54;;;;;;;13.27;11.88;;;;;;;;;;5011847;28;20054;-77
2023/05/22 12:20:21;;;;;;;15.80;12.75;;;;;;;;;;5029043;28;20045;-79
2023/05/22 12:22:49;;;;;;;15.27;13.68;;;;;;;;;;5026846;28;20038;-78
2023/05/22 12:25:16;;;;;;;18.58;14.02;;;;;;;;;;5013665;28;20042;-77
2023/05/22 12:27:45;;;;;;;15.63;13.68;;;;;;;;;;5017328;28;20080;-77
2023/05/22 12:30:13;;;;;;;16.08;14.23;;;;;;;;;;5030464;28;20735;-77
2023/05/22 12:32:42;;;;;;;15.10;13.40;;;;;;;;;;5030165;28;20588;-76
2023/05/22 12:35:15;;;;;;;16.02;13.30;;;;;;;;;;5030280;28;20054;-77
2023/05/22 12:37:48;;;;;;;17.50;14.52;;;;;;;;;;5030810;28;20087;-76
2023/05/22 12:40:14;;;;;;;18.08;14.05;;;;;;;;;;5022719;28;20056;-77
2023/05/22 12:42:41;;;;;;;13.82;12.35;;;;;;;;;;5011818;28;20675;-77
2023/05/22 12:45:11;;;;;;;16.02;13.93;;;;;;;;;;5012008;28;20501;-77
2023/05/22 12:47:38;;;;;;;18.42;14.75;;;;;;;;;;5011297;28;20054;-76
2023/05/22 12:50:06;;;;;;;17.25;13.70;;;;;;;;;;5010612;28;20124;-76
2023/05/22 12:52:33;;;;;;;18.45;16.23;;;;;;;;;;5010184;28;20053;-76
2023/05/22 12:55:00;;;;;;;17.13;15.18;;;;;;;;;;5010303;28;20077;-76
2023/05/22 12:57:27;;;;;;;16.63;13.95;;;;;;;;;;5010723;28;20085;-76
2023/05/22 12:59:53;;;;;;;15.57;13.57;;;;;;;;;;5010796;28;20567;-76
2023/05/22 13:02:21;;;;;;;15.73;13.50;;;;;;;;;;5018207;28;20144;-76
2023/05/22 13:04:48;;;;;;;16.90;14.15;;;;;;;;;;5030427;28;20056;-77
2023/05/22 13:07:14;;;;;;;14.75;13.35;;;;;;;;;;5030321;28;20128;-77
2023/05/22 13:09:41;;;;;;;15.02;13.43;;;;;;;;;;5029880;28;20484;-77
2023/05/22 13:12:09;;;;;;;15.95;14.23;;;;;;;;;;5029848;28;20049;-77
2023/05/22 13:14:37;;;;;;;15.57;13.93;;;;;;;;;;5029359;28;20075;-78
2023/05/22 13:17:05;;;;;;;14.60;13.05;;;;;;;;;;5019724;28;20076;-76
2023/05/22 13:19:33;;;;;;;14.50;13.00;;;;;;;;;;5010572;28;20050;-76
2023/05/22 13:22:00;;;;;;;14.50;13.00;;;;;;;;;;5050161;28;20049;-76
2023/05/22 13:24:26;;;;;;;16.48;14.23;;;;;;;;;;5049631;28;20127;-76
2023/05/22 13:26:53;;;;;;;13.48;12.07;;;;;;;;;;5049249;28;20044;-76
2023/05/22 13:29:20;;;;;;;13.45;12.05;;;;;;;;;;5049691;28;20466;-76
2023/05/22 13:31:46;;;;;;;13.45;12.05;;;;;;;;;;5049890;28;20048;-76
2023/05/22 13:34:16;;;;;;;21.02;17.45;;;;;;;;;;5049580;28;20649;-76
2023/05/22 13:36:44;;;;;;;14.02;12.63;;;;;;;;;;5036775;28;20048;-76
2023/05/22 13:39:11;;;;;;;15.93;14.20;;;;;;;;;;5022003;28;20056;-76
2023/05/22 13:41:37;;;;;;;18.75;13.82;;;;;;;;;;5029690;28;20076;-77
2023/05/22 13:44:04;;;;;;;11.93;10.73;;;;;;;;;;5010342;28;20080;-76
2023/05/22 13:46:31;;;;;;;12.65;11.05;;;;;;;;;;5013686;28;20497;-75
2023/05/22 13:48:57;;;;;;;12.43;10.30;;;;;;;;;;5028927;28;20522;-76
2023/05/22 13:51:24;;;;;;;12.55;11.07;;;;;;;;;;5030678;28;20427;-77
2023/05/22 13:53:52;;;;;;;11.30;10.10;;;;;;;;;;5013786;28;20042;-76
2023/05/22 13:56:18;;;;;;;13.57;10.68;;;;;;;;;;5019768;28;20046;-76
2023/05/22 13:58:45;;;;;;;10.63;9.52;;;;;;;;;;5014374;28;20137;-76
2023/05/22 14:01:11;;;;;;;10.15;9.15;;;;;;;;;;5018416;28;20037;-77
2023/05/22 14:03:38;;;;;;;9.63;8.63;;;;;;;;;;5039747;28;20078;-76
2023/05/22 14:06:05;;;;;;;10.93;9.75;;;;;;;;;;5033953;28;20080;-77
2023/05/22 14:08:32;;;;;;;11.02;9.82;;;;;;;;;;5033694;28;20488;-76
2023/05/22 14:11:00;;;;;;;11.73;10.57;;;;;;;;;;5033216;28;20085;-77
2023/05/22 14:13:27;;;;;;;11.55;10.02;;;;;;;;;;5033074;28;20426;-77
2023/05/22 14:15:53;;;;;;;10.55;9.45;;;;;;;;;;5034037;28;20147;-77
2023/05/22 14:18:20;;;;;;;10.82;9.73;;;;;;;;;;5033703;28;20125;-76
2023/05/22 14:20:47;;;;;;;11.50;9.55;;;;;;;;;;5041584;28;20495;-76
2023/05/22 14:23:14;;;;;;;10.95;9.65;;;;;;;;;;5021232;28;20077;-76
2023/05/22 14:25:41;;;;;;;11.68;9.93;;;;;;;;;;5032640;28;20076;-76
2023/05/22 14:28:10;;;;;;;11.15;10.07;;;;;;;;;;5027303;28;20053;-77
2023/05/22 14:39:55;;;;;;;10.57;9.52;;;;;;;;;;5066373;23;20521;-76